Portada
METAR-TAF:

METAR-TAF

Aeroports :

Guilin, Xina

latitud: 25-20N, longitud: 110-18E, altitud: 166 m

Observació

L'informe es va fer fa 32 minuts, a les 11:00 UTC
Vent 4 kt del Nord-Est, variant entre Nord/Nord-Est i Est
Temperatura 10°C
Humitat 93%
Pressió 1017 hPa
Visibilitat: 4000 m
Escasses núvols a una alçada de 700 ft
Núvols disperses a una alçada de 2000 ft
Cel cobert a una alçada de 2600 ft
boirina

METAR: ZGKL 201100Z 05002MPS 020V080 4000 BR FEW007 SCT020 OVC026 10/09 Q1017 NOSIG

Hora: 19:32 (11:32 UTC)

Pronòstic

L'informe es va fer fa 8 hores i 21 minuts, a les 03:11 UTC
Pronòstic vàlid del 20 a les 06 UTC al 21 a les 06 UTC
Vent 6 kt del Nord-Est
Visibilitat: 7000 m
Escasses núvols a una alçada de 1100 ft
Cel cobert a una alçada de 3300 ft
pluja

TAF: ZGKL 200311Z 2006/2106 05003MPS 7000 -RA FEW011 OVC033 TX14/2007Z TN10/2023Z

Observacions i pronòstics meteorològics de més de 4000 aeroports (METAR i TAF).

Les estacions disponibles són els punts grocs i vermells al mapa.

Posi el ratolí al punt desitjat per veure el nom de l'estació.

Feu clic per veure les observacions i els pronòstics meteorològics.

Per canviar el mapa: feu clic els botons verds amb una creu de color negre per apropar; al botó verd amb un guió per allunyar la imatge; o en les fletxes verdes per a mapes adjacents.


METAR-TAF: